Time;durP1;ratioP1;P1;durP2;ratioP2;P2;SDS_P1;SDS_P2;PMS_P1;PMS_P2;Temp;Humidity;BMP_temperature;BMP_pressure;BME280_temperature;BME280_humidity;BME280_pressure;Samples;Min_cycle;Max_cycle;Signal;HPM_P1;HPM_P2
2022/02/24 00:02:21;;;;;;;4.97;3.60;;;;;;;;;;5046206;28;20267;-81
2022/02/24 00:04:48;;;;;;;4.47;4.07;;;;;;;;;;5027056;28;20187;-81
2022/02/24 00:07:14;;;;;;;3.97;2.97;;;;;;;;;;5046727;28;20179;-81
2022/02/24 00:09:40;;;;;;;5.07;3.47;;;;;;;;;;5045054;28;20191;-81
2022/02/24 00:12:06;;;;;;;4.33;3.70;;;;;;;;;;5045288;28;20197;-81
2022/02/24 00:14:32;;;;;;;3.50;3.20;;;;;;;;;;5045298;28;20178;-80
2022/02/24 00:16:59;;;;;;;3.00;2.70;;;;;;;;;;5044974;28;20191;-81
2022/02/24 00:19:25;;;;;;;4.43;3.10;;;;;;;;;;5045328;28;20205;-81
2022/02/24 00:21:51;;;;;;;2.93;2.63;;;;;;;;;;5041475;28;20211;-81
2022/02/24 00:24:17;;;;;;;4.17;2.83;;;;;;;;;;5037353;28;20181;-81
2022/02/24 00:26:43;;;;;;;4.53;3.23;;;;;;;;;;5043771;28;20188;-81
2022/02/24 00:29:09;;;;;;;4.47;3.50;;;;;;;;;;5044592;28;20178;-81
2022/02/24 00:31:35;;;;;;;3.53;2.90;;;;;;;;;;5045778;28;20262;-81
2022/02/24 00:34:01;;;;;;;3.60;3.30;;;;;;;;;;5044388;28;20616;-81
2022/02/24 00:36:27;;;;;;;4.53;3.17;;;;;;;;;;5025604;28;20184;-81
2022/02/24 00:38:53;;;;;;;3.97;3.43;;;;;;;;;;5024059;28;20206;-81
2022/02/24 00:41:19;;;;;;;5.30;3.10;;;;;;;;;;5040861;28;20210;-81
2022/02/24 00:43:45;;;;;;;5.67;3.40;;;;;;;;;;5037326;28;20552;-81
2022/02/24 00:46:11;;;;;;;3.47;3.07;;;;;;;;;;5019334;28;20181;-81
2022/02/24 00:48:37;;;;;;;4.80;2.97;;;;;;;;;;5037363;28;20650;-81
2022/02/24 00:51:04;;;;;;;5.37;2.93;;;;;;;;;;5037709;28;20684;-81
2022/02/24 00:53:30;;;;;;;3.80;2.93;;;;;;;;;;5019077;28;20225;-81
2022/02/24 00:55:56;;;;;;;2.93;2.63;;;;;;;;;;5040332;28;20188;-82
2022/02/24 00:58:23;;;;;;;3.17;2.80;;;;;;;;;;5040695;28;20204;-81
2022/02/24 01:00:49;;;;;;;4.57;3.43;;;;;;;;;;5041373;28;20751;-81
2022/02/24 01:03:15;;;;;;;3.50;3.20;;;;;;;;;;5044261;28;20183;-81
2022/02/24 01:05:41;;;;;;;3.50;3.20;;;;;;;;;;5045001;28;20262;-81
2022/02/24 01:08:07;;;;;;;4.17;2.97;;;;;;;;;;5040529;28;20735;-81
2022/02/24 01:10:33;;;;;;;3.70;3.00;;;;;;;;;;5040427;28;20202;-81
2022/02/24 01:12:59;;;;;;;6.10;3.40;;;;;;;;;;5041233;28;20232;-81
2022/02/24 01:15:25;;;;;;;5.47;3.57;;;;;;;;;;5022225;28;20182;-81
2022/02/24 01:17:51;;;;;;;3.90;3.17;;;;;;;;;;5040534;28;20176;-81
2022/02/24 01:20:17;;;;;;;5.60;2.90;;;;;;;;;;5022345;28;20233;-81
2022/02/24 01:22:43;;;;;;;4.17;3.27;;;;;;;;;;5040748;28;20185;-81
2022/02/24 01:25:09;;;;;;;3.40;2.67;;;;;;;;;;5040642;28;20182;-81
2022/02/24 01:27:36;;;;;;;3.20;2.47;;;;;;;;;;5022254;28;20172;-81
2022/02/24 01:30:02;;;;;;;3.00;2.50;;;;;;;;;;5042701;28;20207;-81
2022/02/24 01:32:28;;;;;;;3.27;2.87;;;;;;;;;;5040983;28;20220;-81
2022/02/24 01:34:58;;;;;;;2.80;2.50;;;;;;;;;;5041097;28;20183;-81
2022/02/24 01:37:25;;;;;;;3.80;2.70;;;;;;;;;;5040886;28;20193;-81
2022/02/24 01:39:51;;;;;;;3.33;2.80;;;;;;;;;;5022584;28;20207;-81
2022/02/24 01:42:17;;;;;;;2.93;2.73;;;;;;;;;;5040783;28;20198;-81
2022/02/24 01:44:43;;;;;;;4.13;2.80;;;;;;;;;;5040438;28;20183;-81
2022/02/24 01:47:09;;;;;;;7.33;2.40;;;;;;;;;;5022441;28;20185;-81
2022/02/24 01:49:36;;;;;;;3.77;2.70;;;;;;;;;;5040488;28;20186;-81
2022/02/24 01:52:04;;;;;;;5.10;3.40;;;;;;;;;;5042524;28;20218;-81
2022/02/24 01:54:30;;;;;;;5.27;3.10;;;;;;;;;;5042033;28;20188;-81
2022/02/24 01:56:56;;;;;;;3.53;2.43;;;;;;;;;;5023388;28;20193;-81
2022/02/24 01:59:23;;;;;;;3.00;2.70;;;;;;;;;;5022678;28;20284;-81
2022/02/24 02:01:49;;;;;;;4.13;2.60;;;;;;;;;;5039889;28;20218;-81
2022/02/24 02:04:15;;;;;;;3.23;2.50;;;;;;;;;;5039452;28;20182;-81
2022/02/24 02:06:41;;;;;;;3.10;2.80;;;;;;;;;;5040505;28;20175;-81
2022/02/24 02:09:07;;;;;;;3.17;2.87;;;;;;;;;;5022307;28;20624;-81
2022/02/24 02:11:32;;;;;;;3.50;2.77;;;;;;;;;;5040760;28;20576;-81
2022/02/24 02:13:58;;;;;;;2.83;2.60;;;;;;;;;;5039929;28;20301;-81
2022/02/24 02:16:25;;;;;;;2.53;2.20;;;;;;;;;;5021987;28;20211;-81
2022/02/24 02:18:50;;;;;;;4.73;2.93;;;;;;;;;;5020406;28;20282;-81
2022/02/24 02:21:17;;;;;;;3.27;2.53;;;;;;;;;;5039774;28;20210;-81
2022/02/24 02:23:43;;;;;;;3.23;2.37;;;;;;;;;;5040101;28;20288;-81
2022/02/24 02:26:09;;;;;;;3.13;2.83;;;;;;;;;;5021883;28;20665;-81
2022/02/24 02:28:35;;;;;;;4.87;3.20;;;;;;;;;;5039771;28;20182;-81
2022/02/24 02:31:01;;;;;;;3.27;2.87;;;;;;;;;;5039628;28;20220;-81
2022/02/24 02:33:27;;;;;;;4.77;2.97;;;;;;;;;;5022528;28;20269;-81
2022/02/24 02:35:53;;;;;;;2.97;2.67;;;;;;;;;;5039967;28;20182;-81
2022/02/24 02:38:19;;;;;;;3.93;2.67;;;;;;;;;;5051781;28;20206;-81
2022/02/24 02:40:45;;;;;;;3.27;2.50;;;;;;;;;;5052598;28;20343;-81
2022/02/24 02:43:11;;;;;;;4.33;2.73;;;;;;;;;;5047761;28;20186;-81
2022/02/24 02:45:38;;;;;;;3.57;3.07;;;;;;;;;;5043407;28;20175;-81
2022/02/24 02:48:05;;;;;;;2.70;2.50;;;;;;;;;;5025435;28;20190;-81
2022/02/24 02:50:32;;;;;;;3.90;2.37;;;;;;;;;;5042821;28;20187;-81
2022/02/24 02:53:01;;;;;;;4.33;3.13;;;;;;;;;;5042954;28;20541;-81
2022/02/24 02:55:27;;;;;;;5.13;2.70;;;;;;;;;;5042488;28;20190;-81
2022/02/24 02:57:53;;;;;;;4.37;2.67;;;;;;;;;;5024342;28;20198;-81
2022/02/24 03:00:19;;;;;;;4.70;2.70;;;;;;;;;;5040636;28;20206;-81
2022/02/24 03:02:45;;;;;;;2.63;2.43;;;;;;;;;;5038634;28;20186;-82
2022/02/24 03:05:12;;;;;;;3.10;2.80;;;;;;;;;;5037225;28;20198;-81
2022/02/24 03:07:38;;;;;;;3.63;2.80;;;;;;;;;;5039390;28;20215;-81
2022/02/24 03:10:05;;;;;;;3.10;2.23;;;;;;;;;;5039943;28;20210;-81
2022/02/24 03:12:35;;;;;;;3.30;2.80;;;;;;;;;;5041605;28;20248;-81
2022/02/24 03:15:02;;;;;;;4.07;2.70;;;;;;;;;;5041257;28;20186;-81
2022/02/24 03:17:28;;;;;;;5.27;2.53;;;;;;;;;;5021979;28;20189;-81
2022/02/24 03:19:54;;;;;;;3.17;2.87;;;;;;;;;;5040065;28;20263;-81
2022/02/24 03:22:20;;;;;;;3.67;2.60;;;;;;;;;;5022352;28;20181;-81
2022/02/24 03:24:46;;;;;;;4.20;3.30;;;;;;;;;;5040849;28;20591;-81
2022/02/24 03:27:12;;;;;;;3.17;2.73;;;;;;;;;;5040810;28;20186;-81
2022/02/24 03:29:38;;;;;;;4.07;2.83;;;;;;;;;;5040645;28;20670;-81
2022/02/24 03:32:05;;;;;;;3.67;3.10;;;;;;;;;;5039625;28;20213;-81
2022/02/24 03:34:31;;;;;;;3.30;2.60;;;;;;;;;;5039800;28;20723;-81
2022/02/24 03:36:57;;;;;;;3.77;2.80;;;;;;;;;;5021988;28;20186;-81
2022/02/24 03:39:23;;;;;;;2.60;2.40;;;;;;;;;;5040099;28;20218;-81
2022/02/24 03:41:51;;;;;;;3.50;2.50;;;;;;;;;;5040863;28;20286;-81
2022/02/24 03:44:17;;;;;;;5.67;4.20;;;;;;;;;;5040849;28;20598;-81
2022/02/24 03:46:44;;;;;;;3.13;2.73;;;;;;;;;;5040007;28;20209;-81
2022/02/24 03:49:10;;;;;;;3.20;2.70;;;;;;;;;;5039702;28;20178;-81
2022/02/24 03:51:36;;;;;;;4.27;3.40;;;;;;;;;;5039313;28;20209;-81
2022/02/24 03:54:02;;;;;;;3.93;2.83;;;;;;;;;;5039532;28;20181;-81
2022/02/24 03:56:28;;;;;;;3.30;3.00;;;;;;;;;;5039562;28;20182;-81
2022/02/24 03:58:54;;;;;;;4.77;3.03;;;;;;;;;;5021291;28;20212;-81
2022/02/24 04:01:20;;;;;;;3.07;2.77;;;;;;;;;;5039324;28;20211;-81
2022/02/24 04:03:46;;;;;;;3.20;2.90;;;;;;;;;;5039090;28;20189;-81
2022/02/24 04:06:12;;;;;;;3.53;2.77;;;;;;;;;;5021716;28;20254;-81
2022/02/24 04:08:38;;;;;;;3.27;2.97;;;;;;;;;;5039115;28;20525;-81
2022/02/24 04:11:04;;;;;;;3.27;2.60;;;;;;;;;;5020688;28;20202;-81
2022/02/24 04:13:30;;;;;;;3.60;3.17;;;;;;;;;;5038369;28;20189;-81
2022/02/24 04:15:56;;;;;;;3.77;2.80;;;;;;;;;;5038589;28;20182;-81
2022/02/24 04:18:22;;;;;;;3.07;2.83;;;;;;;;;;5042372;28;20202;-81
2022/02/24 04:20:48;;;;;;;3.07;2.70;;;;;;;;;;5035603;28;20210;-81
2022/02/24 04:23:14;;;;;;;4.03;3.43;;;;;;;;;;5039080;28;20194;-81
2022/02/24 04:25:40;;;;;;;3.70;2.93;;;;;;;;;;5038403;28;20206;-81
2022/02/24 04:28:06;;;;;;;3.03;2.73;;;;;;;;;;5038746;28;20196;-81
2022/02/24 04:30:32;;;;;;;3.20;2.90;;;;;;;;;;5037654;28;20262;-81
2022/02/24 04:32:58;;;;;;;4.00;2.77;;;;;;;;;;5038797;28;20178;-81
2022/02/24 04:35:24;;;;;;;2.90;2.50;;;;;;;;;;5019685;28;20185;-81
2022/02/24 04:37:50;;;;;;;2.50;2.13;;;;;;;;;;5038567;28;20199;-81
2022/02/24 04:40:16;;;;;;;6.43;2.97;;;;;;;;;;5038783;28;20217;-81
2022/02/24 04:42:43;;;;;;;3.10;2.80;;;;;;;;;;5020300;28;20554;-81
2022/02/24 04:45:09;;;;;;;3.10;2.80;;;;;;;;;;5038485;28;20200;-81
2022/02/24 04:47:35;;;;;;;4.27;2.70;;;;;;;;;;5019569;28;20556;-81
2022/02/24 04:50:02;;;;;;;4.57;2.70;;;;;;;;;;5020269;28;20215;-81
2022/02/24 04:52:29;;;;;;;2.80;2.60;;;;;;;;;;5038154;28;20652;-81
2022/02/24 04:54:54;;;;;;;4.67;2.67;;;;;;;;;;5038216;28;20230;-81
2022/02/24 04:57:21;;;;;;;2.90;2.70;;;;;;;;;;5037956;28;20183;-81
2022/02/24 04:59:46;;;;;;;2.90;2.60;;;;;;;;;;5037902;28;20209;-81
2022/02/24 05:02:12;;;;;;;3.20;3.00;;;;;;;;;;5021018;28;20274;-81
2022/02/24 05:04:38;;;;;;;4.07;3.33;;;;;;;;;;5038489;28;20166;-81
2022/02/24 05:07:05;;;;;;;3.00;2.70;;;;;;;;;;5035675;28;20174;-81
2022/02/24 05:09:31;;;;;;;3.40;2.93;;;;;;;;;;5036891;28;20195;-81
2022/02/24 05:11:57;;;;;;;5.77;3.13;;;;;;;;;;5036258;28;20206;-81
2022/02/24 05:14:23;;;;;;;4.80;2.63;;;;;;;;;;5037223;28;20182;-81
2022/02/24 05:16:48;;;;;;;4.23;3.10;;;;;;;;;;5018328;28;20179;-81
2022/02/24 05:19:15;;;;;;;5.03;3.57;;;;;;;;;;5037727;28;20206;-81
2022/02/24 05:21:40;;;;;;;3.10;2.80;;;;;;;;;;5038033;28;20198;-81
2022/02/24 05:24:06;;;;;;;4.13;2.67;;;;;;;;;;5037385;28;20181;-81
2022/02/24 05:26:32;;;;;;;3.63;2.97;;;;;;;;;;5037575;28;20178;-81
2022/02/24 05:28:58;;;;;;;3.43;3.10;;;;;;;;;;5017919;28;20178;-81
2022/02/24 05:31:24;;;;;;;3.37;3.07;;;;;;;;;;5035014;28;20657;-81
2022/02/24 05:33:50;;;;;;;4.23;3.20;;;;;;;;;;5034257;28;20175;-81
2022/02/24 05:36:16;;;;;;;3.00;2.70;;;;;;;;;;5016674;28;20559;-81
2022/02/24 05:38:42;;;;;;;5.47;3.47;;;;;;;;;;5036431;28;20223;-81
2022/02/24 05:41:08;;;;;;;4.13;3.40;;;;;;;;;;5037594;28;20221;-81
2022/02/24 05:43:34;;;;;;;5.47;3.10;;;;;;;;;;5039792;28;20170;-81
2022/02/24 05:46:01;;;;;;;3.77;3.33;;;;;;;;;;5040276;28;20199;-81
2022/02/24 05:48:27;;;;;;;3.97;3.00;;;;;;;;;;5040960;28;20174;-80
2022/02/24 05:50:53;;;;;;;4.67;3.27;;;;;;;;;;5040293;28;20199;-81
2022/02/24 05:53:19;;;;;;;2.87;2.67;;;;;;;;;;5040153;28;20242;-81
2022/02/24 05:55:45;;;;;;;4.63;3.07;;;;;;;;;;5021935;28;20523;-81
2022/02/24 05:58:11;;;;;;;3.90;3.57;;;;;;;;;;5039950;28;20197;-81
2022/02/24 06:00:37;;;;;;;3.83;3.17;;;;;;;;;;5042920;28;20191;-81
2022/02/24 06:03:03;;;;;;;4.10;3.40;;;;;;;;;;5023611;28;20207;-81
2022/02/24 06:05:29;;;;;;;3.97;3.60;;;;;;;;;;5040608;28;20182;-81
2022/02/24 06:07:55;;;;;;;4.37;3.97;;;;;;;;;;5022390;28;20285;-81
2022/02/24 06:10:21;;;;;;;6.03;3.93;;;;;;;;;;5041492;28;20207;-81
2022/02/24 06:12:47;;;;;;;3.53;3.23;;;;;;;;;;5022850;28;20274;-81
2022/02/24 06:15:13;;;;;;;5.47;3.80;;;;;;;;;;5040213;28;20554;-81
2022/02/24 06:17:40;;;;;;;4.53;3.53;;;;;;;;;;5040931;28;20193;-81
2022/02/24 06:20:07;;;;;;;3.30;3.00;;;;;;;;;;5040217;28;20210;-81
2022/02/24 06:22:33;;;;;;;3.47;3.13;;;;;;;;;;5039478;28;20213;-81
2022/02/24 06:24:59;;;;;;;8.13;3.60;;;;;;;;;;5039711;28;20178;-81
2022/02/24 06:27:25;;;;;;;4.10;3.07;;;;;;;;;;5019702;28;20184;-81
2022/02/24 06:29:51;;;;;;;4.00;3.60;;;;;;;;;;5039355;28;20559;-81
2022/02/24 06:32:17;;;;;;;4.87;4.33;;;;;;;;;;5039266;28;20174;-81
2022/02/24 06:34:43;;;;;;;5.13;3.50;;;;;;;;;;5039325;28;20192;-81
2022/02/24 06:37:10;;;;;;;5.53;3.80;;;;;;;;;;5048105;28;20174;-80
2022/02/24 06:39:36;;;;;;;5.17;4.00;;;;;;;;;;5033923;28;20210;-80
2022/02/24 06:42:02;;;;;;;5.60;4.40;;;;;;;;;;5079355;22;20355;-83
2022/02/24 06:44:30;;;;;;;5.87;4.27;;;;;;;;;;5057574;28;20546;-80
2022/02/24 06:46:56;;;;;;;5.87;4.13;;;;;;;;;;5057354;28;20205;-83
2022/02/24 06:49:22;;;;;;;8.40;5.27;;;;;;;;;;5056000;28;20185;-83
2022/02/24 06:51:50;;;;;;;5.63;3.97;;;;;;;;;;5053488;28;20281;-82
2022/02/24 06:54:16;;;;;;;3.87;3.40;;;;;;;;;;5057526;28;20186;-82
2022/02/24 06:56:42;;;;;;;5.27;3.63;;;;;;;;;;5056738;28;20633;-82
2022/02/24 06:59:08;;;;;;;6.37;3.43;;;;;;;;;;5057557;28;20247;-82
2022/02/24 07:01:34;;;;;;;3.60;3.30;;;;;;;;;;5057102;28;20196;-82
2022/02/24 07:04:00;;;;;;;6.20;3.57;;;;;;;;;;5039231;28;20178;-82
2022/02/24 07:06:26;;;;;;;4.50;4.03;;;;;;;;;;5056542;28;20205;-82
2022/02/24 07:08:53;;;;;;;5.33;4.60;;;;;;;;;;5056953;28;20174;-82
2022/02/24 07:11:19;;;;;;;6.67;5.17;;;;;;;;;;5055433;28;20212;-82
2022/02/24 07:13:45;;;;;;;6.30;4.40;;;;;;;;;;5056570;28;20197;-82
2022/02/24 07:16:11;;;;;;;7.67;6.57;;;;;;;;;;5056657;28;20235;-82
2022/02/24 07:18:37;;;;;;;6.23;5.63;;;;;;;;;;5056309;28;20733;-82
2022/02/24 07:21:03;;;;;;;8.73;5.83;;;;;;;;;;5051975;28;20226;-82
2022/02/24 07:23:29;;;;;;;7.73;5.10;;;;;;;;;;5034278;28;20177;-82
2022/02/24 07:25:58;;;;;;;5.87;5.30;;;;;;;;;;5057236;28;20181;-81
2022/02/24 07:28:24;;;;;;;8.00;6.30;;;;;;;;;;5056710;28;20186;-81
2022/02/24 07:30:50;;;;;;;6.83;6.13;;;;;;;;;;5055976;28;20224;-82
2022/02/24 07:33:16;;;;;;;9.50;6.50;;;;;;;;;;5056657;28;20185;-81
2022/02/24 07:35:42;;;;;;;9.97;7.13;;;;;;;;;;5059990;28;20191;-83
2022/02/24 07:38:08;;;;;;;7.67;6.50;;;;;;;;;;5066320;28;20177;-82
2022/02/24 07:40:34;;;;;;;8.40;6.17;;;;;;;;;;5042631;28;20201;-83
2022/02/24 07:43:01;;;;;;;6.53;5.80;;;;;;;;;;5071907;28;20178;-82
2022/02/24 07:45:27;;;;;;;42.53;21.70;;;;;;;;;;5072828;28;20178;-82
2022/02/24 07:47:53;;;;;;;24.07;15.60;;;;;;;;;;5060077;28;20224;-83
2022/02/24 07:50:19;;;;;;;40.77;27.07;;;;;;;;;;5040762;28;20182;-83
2022/02/24 07:52:45;;;;;;;53.27;35.17;;;;;;;;;;5057964;28;20203;-83
2022/02/24 07:55:13;;;;;;;9.30;7.77;;;;;;;;;;5058356;28;20178;-83
2022/02/24 07:57:39;;;;;;;11.80;10.07;;;;;;;;;;5039909;28;20317;-83
2022/02/24 08:00:06;;;;;;;22.17;14.23;;;;;;;;;;5058395;28;20196;-83
2022/02/24 08:02:33;;;;;;;19.70;13.60;;;;;;;;;;5038945;28;20201;-84
2022/02/24 08:04:59;;;;;;;11.10;9.00;;;;;;;;;;5057401;28;20178;-82
2022/02/24 08:07:25;;;;;;;10.77;9.67;;;;;;;;;;5057269;28;20658;-82
2022/02/24 08:09:51;;;;;;;11.90;10.00;;;;;;;;;;5057663;28;20177;-82
2022/02/24 08:15:02;;;;;;;13.50;10.40;;;;;;;;;;5056260;28;20726;-82
2022/02/24 08:17:28;;;;;;;16.07;12.53;;;;;;;;;;5039431;28;20184;-82
2022/02/24 08:19:54;;;;;;;12.50;9.67;;;;;;;;;;5038366;28;20197;-82
2022/02/24 08:22:20;;;;;;;21.13;10.57;;;;;;;;;;5041540;28;20213;-82
2022/02/24 08:24:46;;;;;;;20.27;11.73;;;;;;;;;;5057188;28;20189;-83
2022/02/24 08:27:12;;;;;;;31.63;14.57;;;;;;;;;;5057057;28;20213;-82
2022/02/24 08:29:38;;;;;;;22.33;12.20;;;;;;;;;;5038764;28;20183;-82
2022/02/24 08:32:04;;;;;;;26.57;14.27;;;;;;;;;;5038189;28;20202;-82
2022/02/24 08:34:30;;;;;;;27.67;14.40;;;;;;;;;;5056490;28;20534;-81
2022/02/24 08:36:56;;;;;;;19.63;11.63;;;;;;;;;;5038211;28;20216;-82
2022/02/24 08:39:25;;;;;;;20.97;12.33;;;;;;;;;;5056330;28;20252;-82
2022/02/24 08:41:51;;;;;;;18.20;12.07;;;;;;;;;;5055582;28;20653;-83
2022/02/24 08:44:18;;;;;;;22.70;12.17;;;;;;;;;;5055877;28;20170;-82
2022/02/24 08:46:45;;;;;;;24.53;14.97;;;;;;;;;;5029456;28;20183;-82
2022/02/24 08:49:12;;;;;;;22.30;13.30;;;;;;;;;;5037304;28;20527;-82
2022/02/24 08:51:38;;;;;;;20.97;14.20;;;;;;;;;;5055572;28;20665;-82
2022/02/24 08:54:04;;;;;;;19.70;12.97;;;;;;;;;;5055604;28;20715;-82
2022/02/24 08:56:30;;;;;;;15.93;12.43;;;;;;;;;;5055818;28;20184;-82
2022/02/24 08:58:56;;;;;;;12.73;11.20;;;;;;;;;;5037602;28;20232;-82
2022/02/24 09:01:22;;;;;;;16.70;11.90;;;;;;;;;;5055498;28;20198;-82
2022/02/24 09:03:48;;;;;;;14.77;12.50;;;;;;;;;;5037228;28;20185;-82
2022/02/24 09:06:16;;;;;;;19.43;14.10;;;;;;;;;;5055601;28;20270;-82
2022/02/24 09:08:42;;;;;;;30.07;17.50;;;;;;;;;;5055363;28;20182;-82
2022/02/24 09:11:08;;;;;;;17.93;13.70;;;;;;;;;;5055156;28;20672;-82
2022/02/24 09:13:34;;;;;;;19.77;14.47;;;;;;;;;;5055446;28;20225;-82
2022/02/24 09:16:01;;;;;;;21.47;13.47;;;;;;;;;;5056966;28;20262;-82
2022/02/24 09:18:27;;;;;;;17.53;13.60;;;;;;;;;;5058829;28;20206;-82
2022/02/24 09:20:52;;;;;;;18.43;13.70;;;;;;;;;;5040907;28;20200;-82
2022/02/24 09:23:19;;;;;;;14.20;12.40;;;;;;;;;;5058967;28;20186;-82
2022/02/24 09:25:46;;;;;;;19.23;14.30;;;;;;;;;;5058918;28;20184;-82
2022/02/24 09:28:12;;;;;;;14.80;12.90;;;;;;;;;;5059303;28;20191;-82
2022/02/24 09:30:39;;;;;;;17.30;13.90;;;;;;;;;;5058380;28;20175;-82
2022/02/24 09:33:05;;;;;;;16.93;13.87;;;;;;;;;;5040274;28;20643;-81
2022/02/24 09:35:31;;;;;;;17.40;13.33;;;;;;;;;;5058825;28;20179;-82
2022/02/24 09:37:57;;;;;;;17.70;13.17;;;;;;;;;;5059017;28;20182;-82
2022/02/24 09:40:25;;;;;;;17.13;13.17;;;;;;;;;;5058672;28;20266;-82
2022/02/24 09:42:52;;;;;;;18.93;13.67;;;;;;;;;;5058852;28;20709;-82
2022/02/24 09:45:19;;;;;;;13.67;12.27;;;;;;;;;;5058301;28;20552;-82
2022/02/24 09:47:45;;;;;;;13.60;12.20;;;;;;;;;;5049612;28;20265;-82
2022/02/24 09:50:11;;;;;;;12.73;11.40;;;;;;;;;;5040120;28;20272;-82
2022/02/24 09:52:37;;;;;;;12.07;10.87;;;;;;;;;;5040028;28;20236;-82
2022/02/24 09:55:04;;;;;;;13.00;11.60;;;;;;;;;;5023645;28;20607;-82
2022/02/24 09:57:30;;;;;;;14.17;12.10;;;;;;;;;;5058171;28;20209;-83
2022/02/24 09:59:56;;;;;;;11.60;10.57;;;;;;;;;;5058539;28;20251;-82
2022/02/24 10:02:22;;;;;;;11.63;10.53;;;;;;;;;;5057828;28;20636;-82
2022/02/24 10:05:04;;;;;;;8.90;8.03;;;;;;;;;;5057375;28;20177;-83
2022/02/24 10:07:30;;;;;;;8.57;7.47;;;;;;;;;;5058102;28;20185;-83
2022/02/24 10:09:56;;;;;;;8.57;7.63;;;;;;;;;;5057876;28;20257;-84
2022/02/24 10:12:22;;;;;;;8.17;7.37;;;;;;;;;;5040310;28;20213;-83
2022/02/24 10:14:48;;;;;;;8.93;8.07;;;;;;;;;;5055134;28;20845;-83
2022/02/24 10:17:15;;;;;;;8.80;7.97;;;;;;;;;;5056088;28;20183;-83
2022/02/24 10:19:45;;;;;;;12.30;9.40;;;;;;;;;;5065136;28;20227;-83
2022/02/24 10:22:11;;;;;;;11.80;8.90;;;;;;;;;;5039586;28;20202;-84
2022/02/24 10:24:38;;;;;;;9.33;8.33;;;;;;;;;;5059502;28;20176;-83
2022/02/24 10:27:16;;;;;;;9.60;8.70;;;;;;;;;;5057146;28;20184;-83
2022/02/24 10:30:01;;;;;;;8.73;7.80;;;;;;;;;;5057150;28;20192;-84
2022/02/24 10:32:34;;;;;;;7.30;6.00;;;;;;;;;;5057338;28;20257;-84
2022/02/24 10:35:19;;;;;;;6.67;5.90;;;;;;;;;;5056882;28;20181;-84
2022/02/24 10:37:51;;;;;;;6.90;6.20;;;;;;;;;;5027156;28;20607;-84
2022/02/24 10:40:17;;;;;;;5.70;5.20;;;;;;;;;;5057627;28;20197;-84
2022/02/24 10:42:43;;;;;;;6.40;5.80;;;;;;;;;;5057093;28;20233;-84
2022/02/24 10:45:11;;;;;;;5.87;5.20;;;;;;;;;;5057648;28;20555;-85
2022/02/24 10:47:54;;;;;;;6.13;5.50;;;;;;;;;;5049722;28;20775;-84
2022/02/24 10:50:20;;;;;;;5.57;5.07;;;;;;;;;;5058155;28;20701;-84
2022/02/24 10:52:46;;;;;;;6.13;5.63;;;;;;;;;;5057211;28;20573;-84
2022/02/24 10:55:12;;;;;;;5.87;4.83;;;;;;;;;;5056710;28;20182;-84
2022/02/24 10:57:38;;;;;;;5.87;4.90;;;;;;;;;;5069249;28;20180;-81
2022/02/24 11:00:05;;;;;;;5.77;4.07;;;;;;;;;;5056942;28;20272;-82
2022/02/24 11:02:31;;;;;;;4.00;3.60;;;;;;;;;;5056368;28;20207;-83
2022/02/24 11:04:59;;;;;;;4.93;3.77;;;;;;;;;;5038256;28;20543;-82
2022/02/24 11:07:25;;;;;;;4.33;3.93;;;;;;;;;;5056551;28;20182;-81
2022/02/24 11:09:51;;;;;;;5.10;4.47;;;;;;;;;;5037282;28;20208;-82
2022/02/24 11:12:19;;;;;;;6.00;4.67;;;;;;;;;;5040083;28;20198;-82
2022/02/24 11:14:48;;;;;;;5.80;4.77;;;;;;;;;;5036443;28;20193;-82
2022/02/24 11:17:15;;;;;;;4.93;4.20;;;;;;;;;;5056958;28;20185;-82
2022/02/24 11:19:45;;;;;;;5.30;4.23;;;;;;;;;;5056980;28;20776;-81
2022/02/24 11:22:11;;;;;;;4.23;3.93;;;;;;;;;;5056521;28;20602;-83
2022/02/24 11:24:38;;;;;;;4.53;4.13;;;;;;;;;;5055650;28;20181;-81
2022/02/24 11:27:07;;;;;;;4.33;3.93;;;;;;;;;;5037472;28;20178;-83
2022/02/24 11:29:52;;;;;;;5.40;3.43;;;;;;;;;;5055208;28;20181;-83
2022/02/24 11:32:22;;;;;;;3.90;3.30;;;;;;;;;;5055290;28;20201;-84
2022/02/24 11:34:55;;;;;;;4.30;3.40;;;;;;;;;;5037569;28;20180;-81
2022/02/24 11:37:41;;;;;;;5.70;3.43;;;;;;;;;;5056289;28;20183;-83
2022/02/24 11:40:19;;;;;;;4.53;3.60;;;;;;;;;;5055380;28;20245;-84
2022/02/24 11:43:00;;;;;;;4.30;2.83;;;;;;;;;;5055996;28;20680;-84
2022/02/24 11:45:26;;;;;;;4.97;3.10;;;;;;;;;;5038003;28;20177;-83
2022/02/24 11:47:57;;;;;;;6.87;3.20;;;;;;;;;;5054914;28;20640;-83
2022/02/24 11:50:33;;;;;;;4.67;3.33;;;;;;;;;;5054656;28;20201;-82
2022/02/24 11:52:59;;;;;;;3.80;2.97;;;;;;;;;;5055433;28;20201;-83
2022/02/24 11:55:43;;;;;;;9.00;3.20;;;;;;;;;;5036957;28;20182;-83
2022/02/24 11:58:28;;;;;;;5.30;3.17;;;;;;;;;;5054872;28;20182;-83
2022/02/24 12:01:13;;;;;;;3.23;2.97;;;;;;;;;;5054658;28;20202;-84
2022/02/24 12:03:45;;;;;;;3.47;2.90;;;;;;;;;;5037510;28;20178;-84
2022/02/24 12:06:11;;;;;;;3.87;2.83;;;;;;;;;;5037521;28;20243;-84
2022/02/24 12:08:56;;;;;;;3.37;3.07;;;;;;;;;;5055474;28;20179;-83
2022/02/24 12:11:28;;;;;;;3.40;2.47;;;;;;;;;;5056988;28;20200;-81
2022/02/24 12:13:54;;;;;;;8.97;4.70;;;;;;;;;;5048616;28;20193;-82
2022/02/24 12:16:22;;;;;;;4.40;2.67;;;;;;;;;;5036627;28;20192;-83
2022/02/24 12:18:53;;;;;;;3.13;2.43;;;;;;;;;;5054555;28;20309;-83
2022/02/24 12:21:31;;;;;;;3.47;2.43;;;;;;;;;;5041056;28;20682;-84
2022/02/24 12:23:58;;;;;;;4.53;1.53;;;;;;;;;;5045892;28;20205;-83
2022/02/24 12:26:40;;;;;;;5.73;1.70;;;;;;;;;;5038063;28;20185;-82
2022/02/24 12:29:26;;;;;;;3.37;1.50;;;;;;;;;;5055385;28;20254;-85
2022/02/24 12:31:54;;;;;;;3.93;1.50;;;;;;;;;;5054591;28;20201;-83
2022/02/24 12:34:20;;;;;;;4.13;1.47;;;;;;;;;;5054487;28;20518;-83
2022/02/24 12:36:45;;;;;;;6.57;1.30;;;;;;;;;;5055182;28;20195;-83
2022/02/24 12:39:12;;;;;;;4.20;1.47;;;;;;;;;;5051838;28;20192;-84
2022/02/24 12:41:39;;;;;;;4.77;1.50;;;;;;;;;;5096601;22;20274;-84
2022/02/24 12:44:26;;;;;;;3.77;1.00;;;;;;;;;;5034565;28;20204;-82
2022/02/24 12:47:08;;;;;;;4.80;1.40;;;;;;;;;;5024419;28;20196;-83
2022/02/24 12:49:44;;;;;;;3.80;1.30;;;;;;;;;;5012675;28;20201;-84
2022/02/24 12:52:28;;;;;;;2.90;1.23;;;;;;;;;;5040586;28;20708;-84
2022/02/24 12:54:57;;;;;;;5.97;1.27;;;;;;;;;;5040760;28;20184;-85
2022/02/24 12:57:26;;;;;;;2.00;1.00;;;;;;;;;;5041424;28;20554;-83
2022/02/24 12:59:53;;;;;;;2.60;1.00;;;;;;;;;;5040690;28;20201;-83
2022/02/24 13:02:22;;;;;;;3.03;1.20;;;;;;;;;;5039556;28;20228;-83
2022/02/24 13:04:48;;;;;;;4.43;1.50;;;;;;;;;;5021188;28;20218;-82
2022/02/24 13:10:02;;;;;;;2.70;1.10;;;;;;;;;;5053921;28;20194;-83
2022/02/24 13:12:33;;;;;;;4.33;1.33;;;;;;;;;;5051177;28;20205;-84
2022/02/24 13:14:59;;;;;;;3.47;1.40;;;;;;;;;;5043432;28;20193;-83
2022/02/24 13:17:28;;;;;;;3.73;1.63;;;;;;;;;;5042825;28;20185;-83
2022/02/24 13:19:54;;;;;;;3.00;1.10;;;;;;;;;;5025427;28;20260;-84
2022/02/24 13:22:20;;;;;;;3.03;1.23;;;;;;;;;;5042231;28;20200;-83
2022/02/24 13:24:47;;;;;;;4.00;1.47;;;;;;;;;;5025151;28;20181;-84
2022/02/24 13:27:20;;;;;;;3.70;1.47;;;;;;;;;;5042662;28;20228;-83
2022/02/24 13:29:49;;;;;;;3.80;1.63;;;;;;;;;;5024107;28;20245;-83
2022/02/24 13:32:15;;;;;;;3.10;1.30;;;;;;;;;;5041644;28;20284;-83
2022/02/24 13:34:42;;;;;;;4.67;1.90;;;;;;;;;;5024346;28;20660;-83
2022/02/24 13:37:13;;;;;;;4.53;1.87;;;;;;;;;;5024421;28;20190;-83
2022/02/24 13:39:39;;;;;;;4.10;1.63;;;;;;;;;;5023422;28;20340;-85
2022/02/24 13:42:05;;;;;;;4.27;2.40;;;;;;;;;;5040810;28;20224;-83
2022/02/24 13:44:39;;;;;;;5.83;2.30;;;;;;;;;;5040465;28;20188;-83
2022/02/24 13:47:06;;;;;;;5.33;1.50;;;;;;;;;;5032876;28;20228;-83
2022/02/24 13:49:50;;;;;;;2.63;1.80;;;;;;;;;;5038902;28;20599;-83
2022/02/24 13:52:23;;;;;;;7.03;1.93;;;;;;;;;;5011383;28;20210;-82
2022/02/24 13:54:56;;;;;;;3.43;1.90;;;;;;;;;;5037013;28;20193;-82
2022/02/24 13:57:23;;;;;;;4.20;1.87;;;;;;;;;;5039538;28;20184;-82
2022/02/24 14:00:01;;;;;;;4.17;1.43;;;;;;;;;;5037754;28;20208;-82
2022/02/24 14:02:30;;;;;;;3.20;1.70;;;;;;;;;;5038111;28;20690;-82
2022/02/24 14:04:56;;;;;;;3.07;1.50;;;;;;;;;;5039474;28;20653;-82
2022/02/24 14:07:32;;;;;;;5.10;1.80;;;;;;;;;;5039441;28;20192;-82
2022/02/24 14:10:02;;;;;;;4.23;1.60;;;;;;;;;;5039214;28;20182;-84
2022/02/24 14:12:28;;;;;;;4.03;1.60;;;;;;;;;;5039556;28;20198;-82
2022/02/24 14:14:54;;;;;;;6.83;2.30;;;;;;;;;;5042072;28;20193;-83
2022/02/24 14:17:20;;;;;;;4.90;1.80;;;;;;;;;;5032103;28;20185;-83
2022/02/24 14:19:46;;;;;;;5.57;1.37;;;;;;;;;;5040885;28;20204;-82
2022/02/24 14:22:12;;;;;;;6.33;2.17;;;;;;;;;;5039513;28;20199;-82
2022/02/24 14:24:38;;;;;;;4.10;1.80;;;;;;;;;;5037099;28;20260;-83
2022/02/24 14:27:04;;;;;;;10.00;2.10;;;;;;;;;;5041273;28;20260;-83
2022/02/24 14:29:30;;;;;;;5.83;2.10;;;;;;;;;;5040576;28;20227;-83
2022/02/24 14:31:56;;;;;;;6.73;1.53;;;;;;;;;;5034971;28;20203;-82
2022/02/24 14:34:22;;;;;;;5.63;1.67;;;;;;;;;;5040674;28;20671;-81
2022/02/24 14:36:48;;;;;;;4.13;1.87;;;;;;;;;;5040145;28;20183;-81
2022/02/24 14:39:14;;;;;;;5.47;2.10;;;;;;;;;;5039455;28;20199;-82
2022/02/24 14:41:41;;;;;;;3.70;1.83;;;;;;;;;;5020140;28;20566;-82
2022/02/24 14:44:07;;;;;;;6.27;2.47;;;;;;;;;;5038664;28;20171;-82
2022/02/24 14:46:33;;;;;;;8.73;2.03;;;;;;;;;;5037552;28;20196;-83